Time;durP1;ratioP1;P1;durP2;ratioP2;P2;SDS_P1;SDS_P2;PMS_P1;PMS_P2;Temp;Humidity;BMP_temperature;BMP_pressure;BME280_temperature;BME280_humidity;BME280_pressure;Samples;Min_cycle;Max_cycle;Signal;HPM_P1;HPM_P2
2024/04/11 00:02:10;;;;;;;;;;;14.40;99.90;;;;;;5457677;26;19928;-52
2024/04/11 00:04:35;;;;;;;;;;;14.50;99.90;;;;;;5459623;26;19928;-53
2024/04/11 00:07:01;;;;;;;;;;;14.40;99.90;;;;;;5458287;26;19935;-52
2024/04/11 00:09:27;;;;;;;;;;;14.40;99.90;;;;;;5460665;26;19932;-51
2024/04/11 00:11:52;;;;;;;;;;;14.40;99.90;;;;;;5458991;26;19935;-48
2024/04/11 00:14:18;;;;;;;;;;;14.40;99.90;;;;;;5462068;26;19928;-51
2024/04/11 00:16:43;;;;;;;;;;;14.40;99.90;;;;;;5459190;26;19935;-48
2024/04/11 00:19:09;;;;;;;;;;;14.40;99.90;;;;;;5461796;26;20005;-48
2024/04/11 00:21:34;;;;;;;;;;;14.40;99.90;;;;;;5458900;26;19997;-48
2024/04/11 00:24:00;;;;;;;;;;;14.40;99.90;;;;;;5464822;26;19945;-49
2024/04/11 00:26:26;;;;;;;;;;;14.40;99.90;;;;;;5460094;26;19998;-48
2024/04/11 00:28:53;;;;;;;;;;;14.40;99.90;;;;;;5466302;26;19928;-47
2024/04/11 00:31:18;;;;;;;;;;;14.40;99.90;;;;;;5461816;26;19948;-49
2024/04/11 00:33:54;;;;;;;;;;;14.40;99.90;;;;;;5467523;26;19960;-48
2024/04/11 00:36:23;;;;;;;;;;;14.40;99.90;;;;;;5463128;26;19940;-48
2024/04/11 00:38:50;;;;;;;;;;;14.40;99.90;;;;;;5466176;26;19936;-48
2024/04/11 00:41:17;;;;;;;;;;;14.40;99.90;;;;;;5466963;26;19929;-49
2024/04/11 00:43:43;;;;;;;;;;;14.40;99.90;;;;;;5464157;26;19956;-48
2024/04/11 00:46:10;;;;;;;;;;;14.40;99.90;;;;;;5468366;26;19935;-48
2024/04/11 00:48:38;;;;;;;;;;;14.40;99.90;;;;;;5465294;26;20376;-48
2024/04/11 00:51:05;;;;;;;;;;;14.40;99.90;;;;;;5470956;26;19928;-49
2024/04/11 00:53:30;;;;;;;;;;;14.40;99.90;;;;;;5464701;26;19929;-48
2024/04/11 00:55:56;;;;;;;;;;;14.40;99.90;;;;;;5472829;26;19940;-48
2024/04/11 00:58:22;;;;;;;;;;;14.40;99.90;;;;;;5467018;26;19929;-48
2024/04/11 01:00:48;;;;;;;;;;;14.50;99.90;;;;;;5468096;26;19929;-49
2024/04/11 01:03:14;;;;;;;;;;;14.50;99.90;;;;;;5466019;26;20253;-49
2024/04/11 01:05:40;;;;;;;;;;;14.40;99.90;;;;;;5477509;26;19935;-48
2024/04/11 01:08:08;;;;;;;;;;;14.50;99.90;;;;;;5473140;26;19928;-48
2024/04/11 01:10:34;;;;;;;;;;;14.50;99.90;;;;;;5479691;26;19934;-48
2024/04/11 01:13:01;;;;;;;;;;;14.50;99.90;;;;;;5472295;26;19929;-49
2024/04/11 01:15:27;;;;;;;;;;;14.50;99.90;;;;;;5481659;26;19928;-48
2024/04/11 01:17:52;;;;;;;;;;;14.50;99.90;;;;;;5473192;26;19997;-49
2024/04/11 01:20:18;;;;;;;;;;;14.50;99.90;;;;;;5482047;26;19935;-48
2024/04/11 01:22:43;;;;;;;;;;;14.50;99.90;;;;;;5475399;26;19929;-48
2024/04/11 01:25:09;;;;;;;;;;;14.50;99.90;;;;;;5467634;26;19929;-48
2024/04/11 01:27:35;;;;;;;;;;;14.50;99.90;;;;;;5467392;26;19928;-48
2024/04/11 01:30:03;;;;;;;;;;;14.50;99.90;;;;;;5483465;26;19928;-49
2024/04/11 01:32:30;;;;;;;;;;;14.50;99.90;;;;;;5463623;26;20350;-48
2024/04/11 01:34:56;;;;;;;;;;;14.50;99.90;;;;;;5484812;26;19936;-49
2024/04/11 01:37:22;;;;;;;;;;;14.50;99.90;;;;;;5478972;26;20321;-48
2024/04/11 01:39:47;;;;;;;;;;;14.50;99.90;;;;;;5486218;26;19996;-50
2024/04/11 01:42:13;;;;;;;;;;;14.50;99.90;;;;;;5481331;26;19940;-51
2024/04/11 01:44:39;;;;;;;;;;;14.50;99.90;;;;;;5486002;26;20350;-50
2024/04/11 01:47:05;;;;;;;;;;;14.50;99.90;;;;;;5481310;26;20263;-49
2024/04/11 01:49:31;;;;;;;;;;;14.50;99.90;;;;;;5486195;26;19932;-48
2024/04/11 01:51:57;;;;;;;;;;;14.50;99.90;;;;;;5483286;26;20250;-49
2024/04/11 01:54:23;;;;;;;;;;;14.50;99.90;;;;;;5485344;26;19928;-49
2024/04/11 01:56:49;;;;;;;;;;;14.50;99.90;;;;;;5483095;26;19928;-51
2024/04/11 01:59:16;;;;;;;;;;;14.60;99.90;;;;;;5488264;26;19928;-49
2024/04/11 02:01:42;;;;;;;;;;;14.50;99.90;;;;;;5489156;26;20284;-50
2024/04/11 02:04:09;;;;;;;;;;;14.50;99.90;;;;;;5490705;26;20255;-50
2024/04/11 02:06:38;;;;;;;;;;;14.50;99.90;;;;;;5455972;26;19932;-50
2024/04/11 02:09:11;;;;;;;;;;;14.60;99.90;;;;;;5454531;26;19929;-49
2024/04/11 02:11:44;;;;;;;;;;;14.50;99.90;;;;;;5433091;26;19929;-52
2024/04/11 02:14:11;;;;;;;;;;;14.60;99.90;;;;;;5458338;26;19928;-52
2024/04/11 02:16:37;;;;;;;;;;;14.50;99.90;;;;;;5447063;26;19937;-51
2024/04/11 02:19:06;;;;;;;;;;;14.60;99.90;;;;;;5447328;26;19962;-51
2024/04/11 02:21:35;;;;;;;;;;;14.50;99.90;;;;;;5441923;26;19929;-52
2024/04/11 02:24:01;;;;;;;;;;;14.50;99.90;;;;;;5451735;26;20367;-52
2024/04/11 02:26:27;;;;;;;;;;;14.50;99.90;;;;;;5446926;26;19984;-51
2024/04/11 02:28:52;;;;;;;;;;;14.50;99.90;;;;;;5444492;26;19936;-50
2024/04/11 02:31:18;;;;;;;;;;;14.50;99.90;;;;;;5434005;26;19944;-52
2024/04/11 02:33:43;;;;;;;;;;;14.60;99.90;;;;;;5452592;26;19929;-51
2024/04/11 02:36:09;;;;;;;;;;;14.50;99.90;;;;;;5461630;26;19936;-52
2024/04/11 02:38:34;;;;;;;;;;;14.50;99.90;;;;;;5464474;26;19955;-48
2024/04/11 02:41:00;;;;;;;;;;;14.60;99.90;;;;;;5463122;26;19955;-51
2024/04/11 02:43:26;;;;;;;;;;;14.50;99.90;;;;;;5469936;26;20407;-51
2024/04/11 02:45:53;;;;;;;;;;;14.60;99.90;;;;;;5464564;26;19932;-52
2024/04/11 02:48:18;;;;;;;;;;;14.50;99.90;;;;;;5459320;26;20505;-48
2024/04/11 02:50:44;;;;;;;;;;;14.50;99.90;;;;;;5463373;26;20000;-48
2024/04/11 02:53:09;;;;;;;;;;;14.50;99.90;;;;;;5474338;26;19935;-48
2024/04/11 02:55:35;;;;;;;;;;;14.60;99.90;;;;;;5466430;26;20001;-48
2024/04/11 02:58:01;;;;;;;;;;;14.50;99.90;;;;;;5473330;26;19973;-48
2024/04/11 03:00:27;;;;;;;;;;;14.50;99.90;;;;;;5469653;26;19928;-48
2024/04/11 03:02:53;;;;;;;;;;;14.50;99.90;;;;;;5477860;26;19934;-48
2024/04/11 03:05:19;;;;;;;;;;;14.60;99.90;;;;;;5468631;26;20445;-49
2024/04/11 03:07:45;;;;;;;;;;;14.50;99.90;;;;;;5477724;26;20367;-48
2024/04/11 03:10:10;;;;;;;;;;;14.50;99.90;;;;;;5490102;26;19928;-48
2024/04/11 03:12:36;;;;;;;;;;;14.50;99.90;;;;;;5487662;26;20084;-48
2024/04/11 03:15:08;;;;;;;;;;;14.50;99.90;;;;;;5467431;26;20506;-48
2024/04/11 03:17:34;;;;;;;;;;;14.50;99.90;;;;;;5484274;26;19940;-49
2024/04/11 03:20:00;;;;;;;;;;;14.50;99.90;;;;;;5489541;26;19928;-48
2024/04/11 03:22:25;;;;;;;;;;;14.50;99.90;;;;;;5463772;26;19936;-48
2024/04/11 03:24:51;;;;;;;;;;;14.50;99.90;;;;;;5455410;26;19932;-49
2024/04/11 03:27:16;;;;;;;;;;;14.50;99.90;;;;;;5470981;26;19929;-49
2024/04/11 03:29:45;;;;;;;;;;;14.50;99.90;;;;;;5477121;26;19928;-49
2024/04/11 03:32:11;;;;;;;;;;;14.50;99.90;;;;;;5464658;26;20367;-48
2024/04/11 03:34:37;;;;;;;;;;;14.60;99.90;;;;;;5462969;26;19935;-48
2024/04/11 03:37:04;;;;;;;;;;;14.50;99.90;;;;;;5477704;26;20425;-48
2024/04/11 03:39:30;;;;;;;;;;;14.50;99.90;;;;;;5472370;26;20001;-48
2024/04/11 03:41:56;;;;;;;;;;;14.50;99.90;;;;;;5455753;26;19968;-48
2024/04/11 03:44:22;;;;;;;;;;;14.60;99.90;;;;;;5453533;26;19936;-50
2024/04/11 03:46:47;;;;;;;;;;;14.50;99.90;;;;;;5456438;26;19996;-48
2024/04/11 03:49:13;;;;;;;;;;;14.50;99.90;;;;;;5460165;26;19936;-48
2024/04/11 03:51:41;;;;;;;;;;;14.50;99.90;;;;;;5460973;26;20570;-48
2024/04/11 03:54:07;;;;;;;;;;;14.50;99.90;;;;;;5456632;26;19935;-49
2024/04/11 03:56:33;;;;;;;;;;;14.50;99.90;;;;;;5456441;26;19940;-48
2024/04/11 03:58:58;;;;;;;;;;;14.50;99.90;;;;;;5466785;26;20360;-48
2024/04/11 04:01:26;;;;;;;;;;;14.50;99.90;;;;;;5455920;26;19933;-50
2024/04/11 04:03:51;;;;;;;;;;;14.60;99.90;;;;;;5456803;26;20001;-52
2024/04/11 04:06:17;;;;;;;;;;;14.60;99.90;;;;;;5449849;26;19940;-53
2024/04/11 04:08:45;;;;;;;;;;;14.50;99.90;;;;;;5447684;26;20267;-52
2024/04/11 04:11:11;;;;;;;;;;;14.50;99.90;;;;;;5453300;26;20241;-52
2024/04/11 04:13:37;;;;;;;;;;;14.50;99.90;;;;;;5453410;26;20000;-52
2024/04/11 04:16:08;;;;;;;;;;;14.50;99.90;;;;;;5452473;26;19928;-53
2024/04/11 04:18:36;;;;;;;;;;;14.50;99.90;;;;;;5446526;26;19969;-52
2024/04/11 04:21:02;;;;;;;;;;;14.50;99.90;;;;;;5453179;26;19929;-53
2024/04/11 04:23:28;;;;;;;;;;;14.60;99.90;;;;;;5449608;26;19932;-52
2024/04/11 04:26:05;;;;;;;;;;;14.50;99.90;;;;;;5456400;26;19955;-49
2024/04/11 04:28:31;;;;;;;;;;;14.50;99.90;;;;;;5445156;26;20381;-48
2024/04/11 04:31:17;;;;;;;;;;;14.60;99.90;;;;;;5447814;26;19936;-48
2024/04/11 04:33:47;;;;;;;;;;;14.60;99.90;;;;;;5448247;26;19997;-49
2024/04/11 04:36:24;;;;;;;;;;;14.60;99.90;;;;;;5443703;26;19928;-49
2024/04/11 04:38:50;;;;;;;;;;;14.60;99.90;;;;;;5451188;26;20260;-52
2024/04/11 04:41:26;;;;;;;;;;;14.50;99.90;;;;;;5450597;26;19929;-53
2024/04/11 04:43:54;;;;;;;;;;;14.50;99.90;;;;;;5454825;26;20152;-52
2024/04/11 04:46:24;;;;;;;;;;;14.60;99.90;;;;;;5458352;26;19998;-48
2024/04/11 04:48:49;;;;;;;;;;;14.50;99.90;;;;;;5456149;26;20225;-53
2024/04/11 04:51:18;;;;;;;;;;;14.50;99.90;;;;;;5450909;26;19940;-51
2024/04/11 04:53:47;;;;;;;;;;;14.50;99.90;;;;;;5461006;26;19946;-51
2024/04/11 04:56:12;;;;;;;;;;;14.50;99.90;;;;;;5448465;26;19929;-52
2024/04/11 04:58:41;;;;;;;;;;;14.60;99.90;;;;;;5453913;26;20359;-52
2024/04/11 05:01:08;;;;;;;;;;;14.60;99.90;;;;;;5441350;26;20296;-52
2024/04/11 05:03:38;;;;;;;;;;;14.60;99.90;;;;;;5473859;26;19936;-53
2024/04/11 05:06:04;;;;;;;;;;;14.60;99.90;;;;;;5440739;26;19928;-51
2024/04/11 05:08:32;;;;;;;;;;;14.60;99.90;;;;;;5438980;26;19936;-52
2024/04/11 05:10:58;;;;;;;;;;;14.60;99.90;;;;;;5451424;26;19937;-53
2024/04/11 05:13:26;;;;;;;;;;;14.60;99.90;;;;;;5451683;26;19936;-48
2024/04/11 05:16:06;;;;;;;;;;;14.50;99.90;;;;;;5459895;26;19935;-49
2024/04/11 05:18:37;;;;;;;;;;;14.60;99.90;;;;;;5459203;26;19929;-55
2024/04/11 05:21:16;;;;;;;;;;;14.60;99.90;;;;;;5463639;26;19936;-49
2024/04/11 05:23:42;;;;;;;;;;;14.60;99.90;;;;;;5465726;26;19935;-48
2024/04/11 05:26:23;;;;;;;;;;;14.60;99.90;;;;;;5460732;26;19932;-49
2024/04/11 05:28:50;;;;;;;;;;;14.60;99.90;;;;;;5463321;26;20260;-49
2024/04/11 05:31:18;;;;;;;;;;;14.60;99.90;;;;;;5434290;26;20360;-49
2024/04/11 05:33:53;;;;;;;;;;;14.60;99.90;;;;;;5433590;26;19940;-49
2024/04/11 05:36:25;;;;;;;;;;;14.60;99.90;;;;;;5486898;26;19934;-48
2024/04/11 05:38:51;;;;;;;;;;;14.60;99.90;;;;;;5461135;26;20297;-51
2024/04/11 05:41:16;;;;;;;;;;;14.60;99.90;;;;;;5483602;26;19928;-49
2024/04/11 05:43:42;;;;;;;;;;;14.50;99.90;;;;;;5449451;26;20402;-49
2024/04/11 05:46:11;;;;;;;;;;;14.60;99.90;;;;;;5458128;26;19935;-50
2024/04/11 05:48:37;;;;;;;;;;;14.60;99.90;;;;;;5455324;26;19929;-49
2024/04/11 05:51:05;;;;;;;;;;;14.60;99.90;;;;;;5453793;26;19929;-49
2024/04/11 05:53:31;;;;;;;;;;;14.60;99.90;;;;;;5452527;26;19928;-48
2024/04/11 05:55:57;;;;;;;;;;;14.60;99.90;;;;;;5451582;26;19940;-48
2024/04/11 05:58:24;;;;;;;;;;;14.60;99.90;;;;;;5453318;26;19928;-49
2024/04/11 06:00:49;;;;;;;;;;;14.60;99.90;;;;;;5454431;26;20359;-49
2024/04/11 06:03:15;;;;;;;;;;;14.60;99.90;;;;;;5454036;26;19939;-49
2024/04/11 06:05:41;;;;;;;;;;;14.60;99.90;;;;;;5454022;26;19961;-48
2024/04/11 06:08:07;;;;;;;;;;;14.60;99.90;;;;;;5457258;26;19928;-50
2024/04/11 06:10:33;;;;;;;;;;;14.60;99.90;;;;;;5456622;26;19932;-48
2024/04/11 06:12:58;;;;;;;;;;;14.60;99.90;;;;;;5457732;26;19932;-49
2024/04/11 06:15:25;;;;;;;;;;;14.60;99.90;;;;;;5457650;26;19928;-48
2024/04/11 06:17:52;;;;;;;;;;;14.60;99.90;;;;;;5456496;26;19928;-48
2024/04/11 06:20:21;;;;;;;;;;;14.60;99.90;;;;;;5456780;26;19936;-48
2024/04/11 06:22:52;;;;;;;;;;;14.60;99.90;;;;;;5457388;26;19928;-49
2024/04/11 06:25:20;;;;;;;;;;;14.60;99.90;;;;;;5457025;26;19932;-49
2024/04/11 06:27:46;;;;;;;;;;;14.60;99.90;;;;;;5457366;26;19929;-48
2024/04/11 06:30:14;;;;;;;;;;;14.60;99.90;;;;;;5457171;26;19950;-49
2024/04/11 06:32:40;;;;;;;;;;;14.60;99.90;;;;;;5456317;26;19932;-49
2024/04/11 06:35:08;;;;;;;;;;;14.60;99.90;;;;;;5456174;26;19940;-48
2024/04/11 06:37:37;;;;;;;;;;;14.60;99.90;;;;;;5442385;26;19928;-50
2024/04/11 06:40:11;;;;;;;;;;;14.60;99.90;;;;;;5468007;26;19932;-47
2024/04/11 06:42:46;;;;;;;;;;;14.60;99.90;;;;;;5469078;26;19942;-48
2024/04/11 06:45:15;;;;;;;;;;;14.50;99.90;;;;;;5474753;26;19964;-47
2024/04/11 06:47:41;;;;;;;;;;;14.50;99.90;;;;;;5455344;26;20287;-47
2024/04/11 06:50:07;;;;;;;;;;;14.60;99.90;;;;;;5456199;26;19940;-47
2024/04/11 06:52:32;;;;;;;;;;;14.60;99.90;;;;;;5455076;26;19936;-47
2024/04/11 06:54:58;;;;;;;;;;;14.60;99.90;;;;;;5474170;26;19947;-48
2024/04/11 06:57:26;;;;;;;;;;;14.60;99.90;;;;;;5454596;26;19928;-47
2024/04/11 06:59:52;;;;;;;;;;;14.60;99.90;;;;;;5452397;26;19928;-47
2024/04/11 07:02:18;;;;;;;;;;;14.60;99.90;;;;;;5461904;26;19936;-47
2024/04/11 07:04:44;;;;;;;;;;;14.60;99.90;;;;;;5479300;26;19936;-47
2024/04/11 07:07:10;;;;;;;;;;;14.60;99.90;;;;;;5488219;26;20371;-47
2024/04/11 07:09:38;;;;;;;;;;;14.70;99.90;;;;;;5470563;26;19935;-47
2024/04/11 07:12:06;;;;;;;;;;;14.60;99.90;;;;;;5457229;26;19928;-47
2024/04/11 07:14:32;;;;;;;;;;;14.60;99.90;;;;;;5464293;26;19929;-47
2024/04/11 07:16:59;;;;;;;;;;;14.70;99.90;;;;;;5453978;26;19929;-47
2024/04/11 07:19:25;;;;;;;;;;;14.60;99.90;;;;;;5452699;26;19928;-47
2024/04/11 07:21:52;;;;;;;;;;;14.60;99.90;;;;;;5476121;26;19935;-47
2024/04/11 07:24:19;;;;;;;;;;;14.60;99.90;;;;;;5465865;26;19929;-47
2024/04/11 07:26:48;;;;;;;;;;;14.70;99.90;;;;;;5476999;26;19936;-47
2024/04/11 07:29:15;;;;;;;;;;;14.70;99.90;;;;;;5457153;26;19928;-48
2024/04/11 07:31:41;;;;;;;;;;;14.60;99.90;;;;;;5477535;26;19928;-47
2024/04/11 07:34:07;;;;;;;;;;;14.60;99.90;;;;;;5482859;26;19955;-47
2024/04/11 07:36:39;;;;;;;;;;;14.60;99.90;;;;;;5481603;26;19935;-48
2024/04/11 07:39:08;;;;;;;;;;;14.60;99.90;;;;;;5482312;26;19935;-48
2024/04/11 07:41:46;;;;;;;;;;;14.60;99.90;;;;;;5482155;26;19943;-49
2024/04/11 07:44:17;;;;;;;;;;;14.60;99.90;;;;;;5485849;26;19936;-49
2024/04/11 07:46:43;;;;;;;;;;;14.60;99.90;;;;;;5462657;26;19928;-49
2024/04/11 07:49:09;;;;;;;;;;;14.60;99.90;;;;;;5465258;26;20296;-47
2024/04/11 07:51:36;;;;;;;;;;;14.60;99.90;;;;;;5463921;26;19936;-52
2024/04/11 07:54:04;;;;;;;;;;;14.60;99.90;;;;;;5464407;26;19928;-51
2024/04/11 07:56:30;;;;;;;;;;;14.70;99.90;;;;;;5463718;26;20624;-49
2024/04/11 07:58:56;;;;;;;;;;;14.60;99.90;;;;;;5463602;26;20049;-51
2024/04/11 08:01:30;;;;;;;;;;;14.60;99.90;;;;;;5461221;26;19947;-48
2024/04/11 08:04:02;;;;;;;;;;;14.60;99.90;;;;;;5442268;26;20346;-50
2024/04/11 08:06:28;;;;;;;;;;;14.60;99.90;;;;;;5443198;26;19968;-47
2024/04/11 08:08:54;;;;;;;;;;;14.70;99.90;;;;;;5438951;26;19928;-51
2024/04/11 08:11:20;;;;;;;;;;;14.60;99.90;;;;;;5442812;26;19929;-47
2024/04/11 08:13:47;;;;;;;;;;;14.60;99.90;;;;;;5439097;26;19932;-49
2024/04/11 08:16:12;;;;;;;;;;;14.60;99.90;;;;;;5438673;26;19939;-50
2024/04/11 08:18:38;;;;;;;;;;;14.60;99.90;;;;;;5438798;26;19964;-50
2024/04/11 08:21:07;;;;;;;;;;;14.60;99.90;;;;;;5436279;26;20449;-49
2024/04/11 08:23:45;;;;;;;;;;;14.60;99.90;;;;;;5443684;26;19936;-60
2024/04/11 08:26:12;;;;;;;;;;;14.60;99.90;;;;;;5434177;26;19941;-50
2024/04/11 08:28:39;;;;;;;;;;;14.60;99.90;;;;;;5442423;26;20346;-50
2024/04/11 08:31:08;;;;;;;;;;;14.60;99.90;;;;;;5452360;26;19948;-47
2024/04/11 08:33:34;;;;;;;;;;;14.60;99.90;;;;;;5439361;26;19939;-50
2024/04/11 08:36:00;;;;;;;;;;;14.60;99.90;;;;;;5453068;26;19928;-48
2024/04/11 08:38:26;;;;;;;;;;;14.60;99.90;;;;;;5438522;26;19937;-51
2024/04/11 08:40:51;;;;;;;;;;;14.60;99.90;;;;;;5440370;26;19933;-50
2024/04/11 08:43:19;;;;;;;;;;;14.60;99.90;;;;;;5439684;26;19929;-50
2024/04/11 08:45:46;;;;;;;;;;;14.70;99.90;;;;;;5439654;26;20264;-50
2024/04/11 08:48:12;;;;;;;;;;;14.70;99.90;;;;;;5439885;26;20364;-47
2024/04/11 08:50:43;;;;;;;;;;;14.70;99.90;;;;;;5439272;26;19929;-47
2024/04/11 08:53:10;;;;;;;;;;;14.70;99.90;;;;;;5442598;26;19936;-48
2024/04/11 08:55:40;;;;;;;;;;;14.70;99.90;;;;;;5439571;26;19939;-50
2024/04/11 08:58:08;;;;;;;;;;;14.70;99.90;;;;;;5439875;26;20311;-47
2024/04/11 09:00:38;;;;;;;;;;;14.70;99.90;;;;;;5431045;26;19929;-47
2024/04/11 09:03:05;;;;;;;;;;;14.70;99.90;;;;;;5441234;26;19929;-47
2024/04/11 09:05:31;;;;;;;;;;;14.70;99.90;;;;;;5438965;26;19928;-49
2024/04/11 09:07:59;;;;;;;;;;;14.70;99.90;;;;;;5450498;26;19928;-47
2024/04/11 09:10:25;;;;;;;;;;;14.70;99.90;;;;;;5448555;26;19936;-47
2024/04/11 09:12:52;;;;;;;;;;;14.70;99.90;;;;;;5451943;26;19932;-47
2024/04/11 09:15:20;;;;;;;;;;;14.70;99.90;;;;;;5453260;26;19940;-47
2024/04/11 09:17:45;;;;;;;;;;;14.70;99.90;;;;;;5452478;26;19929;-47
2024/04/11 09:20:13;;;;;;;;;;;14.70;99.90;;;;;;5453267;26;19964;-47
2024/04/11 09:22:51;;;;;;;;;;;14.70;99.90;;;;;;5450776;26;20362;-47
2024/04/11 09:25:25;;;;;;;;;;;14.80;99.90;;;;;;5449867;26;19929;-48
2024/04/11 09:27:54;;;;;;;;;;;14.70;99.90;;;;;;5431993;26;20352;-48
2024/04/11 09:30:20;;;;;;;;;;;14.70;99.90;;;;;;5452692;26;19943;-47
2024/04/11 09:32:48;;;;;;;;;;;14.70;99.90;;;;;;5452946;26;19928;-47
2024/04/11 09:35:20;;;;;;;;;;;14.80;99.90;;;;;;5446270;26;19947;-47
2024/04/11 09:37:49;;;;;;;;;;;14.80;99.90;;;;;;5438877;26;20466;-48
2024/04/11 09:40:24;;;;;;;;;;;14.80;99.90;;;;;;5438680;26;20464;-47
2024/04/11 09:43:03;;;;;;;;;;;14.80;99.90;;;;;;5437934;26;19929;-47
2024/04/11 09:45:32;;;;;;;;;;;14.80;99.90;;;;;;5440159;26;19939;-48
2024/04/11 09:47:59;;;;;;;;;;;14.80;99.90;;;;;;5437538;26;19953;-49
2024/04/11 09:50:27;;;;;;;;;;;14.80;99.90;;;;;;5436941;26;19929;-51
2024/04/11 09:52:54;;;;;;;;;;;14.80;99.90;;;;;;5430632;26;19936;-47
2024/04/11 09:55:33;;;;;;;;;;;14.80;99.90;;;;;;5436083;26;19941;-47
2024/04/11 09:58:04;;;;;;;;;;;14.90;99.90;;;;;;5435630;26;19940;-47
2024/04/11 10:00:48;;;;;;;;;;;14.80;99.90;;;;;;5451172;26;19928;-51
2024/04/11 10:03:22;;;;;;;;;;;14.90;99.90;;;;;;5445669;26;19936;-48
2024/04/11 10:05:50;;;;;;;;;;;14.90;99.90;;;;;;5445852;26;20454;-51
2024/04/11 10:08:31;;;;;;;;;;;14.90;99.90;;;;;;5446518;26;20380;-51
2024/04/11 10:11:03;;;;;;;;;;;14.90;99.90;;;;;;5453162;26;19936;-51
2024/04/11 10:13:38;;;;;;;;;;;14.90;99.90;;;;;;5446860;26;20363;-52
2024/04/11 10:16:28;;;;;;;;;;;14.90;99.90;;;;;;5441824;26;20006;-51
2024/04/11 10:18:53;;;;;;;;;;;14.90;99.90;;;;;;5441917;26;19928;-51
2024/04/11 10:21:26;;;;;;;;;;;14.90;99.90;;;;;;5432931;26;19934;-50
2024/04/11 10:23:52;;;;;;;;;;;14.90;99.90;;;;;;5439863;26;19940;-51
2024/04/11 10:26:27;;;;;;;;;;;14.90;99.90;;;;;;5440301;26;19929;-52
2024/04/11 10:28:56;;;;;;;;;;;14.90;99.90;;;;;;5429129;26;20316;-52
2024/04/11 10:31:25;;;;;;;;;;;14.90;99.90;;;;;;5439203;26;20536;-48
2024/04/11 10:34:11;;;;;;;;;;;14.90;99.90;;;;;;5443070;26;19948;-52
2024/04/11 10:36:42;;;;;;;;;;;14.90;99.90;;;;;;5435580;26;19929;-56
2024/04/11 10:39:08;;;;;;;;;;;14.90;99.90;;;;;;5433621;26;19937;-53
2024/04/11 10:41:35;;;;;;;;;;;15.00;99.90;;;;;;5437937;26;19937;-52
2024/04/11 10:44:05;;;;;;;;;;;15.00;99.90;;;;;;5445843;26;20379;-47
2024/04/11 10:46:31;;;;;;;;;;;15.00;99.90;;;;;;5451188;26;19936;-47
2024/04/11 10:49:12;;;;;;;;;;;15.00;99.90;;;;;;5450405;26;19929;-47
2024/04/11 10:51:38;;;;;;;;;;;15.00;99.90;;;;;;5450790;26;19959;-48
2024/04/11 10:54:09;;;;;;;;;;;15.00;99.90;;;;;;5453954;26;19936;-47
2024/04/11 10:56:43;;;;;;;;;;;15.00;99.90;;;;;;5448215;26;19929;-51
2024/04/11 10:59:17;;;;;;;;;;;15.00;99.90;;;;;;5438294;26;19928;-52
2024/04/11 11:02:00;;;;;;;;;;;15.00;99.90;;;;;;5443368;26;20000;-52
2024/04/11 11:04:26;;;;;;;;;;;15.00;99.90;;;;;;5442056;26;19928;-51
2024/04/11 11:06:54;;;;;;;;;;;15.10;99.90;;;;;;5440762;26;19937;-50
2024/04/11 11:09:21;;;;;;;;;;;15.10;99.90;;;;;;5443833;26;19997;-48
2024/04/11 11:11:47;;;;;;;;;;;15.10;99.90;;;;;;5436091;26;19928;-48
2024/04/11 11:14:17;;;;;;;;;;;15.10;99.90;;;;;;5443202;26;19929;-50
2024/04/11 11:16:44;;;;;;;;;;;15.10;99.90;;;;;;5439193;26;19936;-47
2024/04/11 11:19:13;;;;;;;;;;;15.10;99.90;;;;;;5443778;26;19939;-47
2024/04/11 11:21:42;;;;;;;;;;;15.20;99.90;;;;;;5437694;26;19928;-47
2024/04/11 11:24:13;;;;;;;;;;;15.20;99.90;;;;;;5443812;26;19940;-47
2024/04/11 11:26:43;;;;;;;;;;;15.20;99.90;;;;;;5450608;26;20302;-47
2024/04/11 11:29:10;;;;;;;;;;;15.20;99.90;;;;;;5453747;26;19929;-47
2024/04/11 11:31:40;;;;;;;;;;;15.20;99.90;;;;;;5438517;26;19929;-47
2024/04/11 11:34:10;;;;;;;;;;;15.20;99.90;;;;;;5447920;26;20390;-48
2024/04/11 11:36:40;;;;;;;;;;;15.20;99.90;;;;;;5452469;26;19944;-47
2024/04/11 11:39:09;;;;;;;;;;;15.30;99.90;;;;;;5440196;26;19929;-50
2024/04/11 11:41:37;;;;;;;;;;;15.20;99.90;;;;;;5436892;26;19936;-47
2024/04/11 11:44:17;;;;;;;;;;;15.20;99.90;;;;;;5452143;26;19928;-50
2024/04/11 11:47:06;;;;;;;;;;;15.20;99.90;;;;;;5436992;26;19944;-47
2024/04/11 11:49:38;;;;;;;;;;;15.20;99.90;;;;;;5448936;26;19928;-48
2024/04/11 11:52:04;;;;;;;;;;;15.20;99.90;;;;;;5450146;26;19929;-48
2024/04/11 11:54:34;;;;;;;;;;;15.20;99.90;;;;;;5441435;26;19932;-47
2024/04/11 11:57:18;;;;;;;;;;;15.20;99.90;;;;;;5451251;26;20495;-49
2024/04/11 11:59:47;;;;;;;;;;;15.20;99.90;;;;;;5448010;26;19933;-49
2024/04/11 12:02:14;;;;;;;;;;;15.20;99.90;;;;;;5453724;26;19943;-48
2024/04/11 12:04:46;;;;;;;;;;;15.30;99.90;;;;;;5447238;26;20138;-47
2024/04/11 12:07:12;;;;;;;;;;;15.30;99.90;;;;;;5446905;26;19929;-48
2024/04/11 12:09:43;;;;;;;;;;;15.30;99.90;;;;;;5451114;26;19937;-47
2024/04/11 12:12:21;;;;;;;;;;;15.30;99.90;;;;;;5448088;26;19936;-47
2024/04/11 12:14:55;;;;;;;;;;;15.30;99.90;;;;;;5448071;26;20015;-49
2024/04/11 12:17:26;;;;;;;;;;;15.30;99.90;;;;;;5450650;26;19928;-48
2024/04/11 12:19:52;;;;;;;;;;;15.30;99.90;;;;;;5451370;26;19929;-48
2024/04/11 12:22:18;;;;;;;;;;;15.40;99.90;;;;;;5451812;26;20044;-47
2024/04/11 12:24:50;;;;;;;;;;;15.40;99.90;;;;;;5454047;26;19928;-52
2024/04/11 12:27:16;;;;;;;;;;;15.40;99.90;;;;;;5454965;26;19935;-52
2024/04/11 12:29:43;;;;;;;;;;;15.50;99.90;;;;;;5453628;26;19939;-50
2024/04/11 12:32:09;;;;;;;;;;;15.40;99.90;;;;;;5454454;26;19937;-52
2024/04/11 12:34:37;;;;;;;;;;;15.40;99.90;;;;;;5454884;26;20364;-51
2024/04/11 12:37:16;;;;;;;;;;;15.40;99.90;;;;;;5455134;26;19936;-50
2024/04/11 12:39:54;;;;;;;;;;;15.40;99.90;;;;;;5429362;26;19933;-51
2024/04/11 12:42:23;;;;;;;;;;;15.40;99.90;;;;;;5450475;26;19941;-47
2024/04/11 12:44:49;;;;;;;;;;;15.40;99.90;;;;;;5445692;26;19978;-50
2024/04/11 12:47:16;;;;;;;;;;;15.40;99.90;;;;;;5454838;26;20375;-52
2024/04/11 12:49:47;;;;;;;;;;;15.40;99.90;;;;;;5454125;26;19983;-51
2024/04/11 12:52:24;;;;;;;;;;;15.40;99.90;;;;;;5455300;26;19928;-51
2024/04/11 12:54:50;;;;;;;;;;;15.40;99.90;;;;;;5442889;26;20283;-52
2024/04/11 12:57:17;;;;;;;;;;;15.40;99.90;;;;;;5454530;26;20589;-52
2024/04/11 12:59:46;;;;;;;;;;;15.40;99.90;;;;;;5454757;26;19939;-50
2024/04/11 13:02:18;;;;;;;;;;;15.40;99.90;;;;;;5454265;26;19928;-52
2024/04/11 13:04:54;;;;;;;;;;;15.40;99.90;;;;;;5454468;26;19935;-52
2024/04/11 13:07:21;;;;;;;;;;;15.40;99.90;;;;;;5454220;26;20570;-48
2024/04/11 13:09:53;;;;;;;;;;;15.40;99.90;;;;;;5454431;26;19933;-51
2024/04/11 13:12:19;;;;;;;;;;;15.40;99.90;;;;;;5453636;26;19928;-50
2024/04/11 13:14:55;;;;;;;;;;;15.40;99.90;;;;;;5453278;26;19936;-51
2024/04/11 13:17:23;;;;;;;;;;;15.40;99.90;;;;;;5452964;26;21178;-52
2024/04/11 13:19:56;;;;;;;;;;;15.40;99.90;;;;;;5454803;26;19928;-51
2024/04/11 13:22:25;;;;;;;;;;;15.40;99.90;;;;;;5453686;26;19937;-50
2024/04/11 13:25:00;;;;;;;;;;;15.40;99.90;;;;;;5453934;26;19978;-50
2024/04/11 13:27:28;;;;;;;;;;;15.40;99.90;;;;;;5453382;26;19928;-52
2024/04/11 13:30:11;;;;;;;;;;;15.40;99.90;;;;;;5438238;26;20348;-50
2024/04/11 13:32:40;;;;;;;;;;;15.40;99.90;;;;;;5443377;26;19935;-50
2024/04/11 13:35:11;;;;;;;;;;;15.40;99.90;;;;;;5452011;26;19928;-48
2024/04/11 13:37:37;;;;;;;;;;;15.50;99.90;;;;;;5448568;26;19935;-47
2024/04/11 13:42:55;;;;;;;;;;;15.50;99.90;;;;;;5450282;26;19970;-49
2024/04/11 13:45:22;;;;;;;;;;;15.50;99.90;;;;;;5452446;26;20352;-47
2024/04/11 13:47:49;;;;;;;;;;;15.50;99.90;;;;;;5453735;26;20364;-48
2024/04/11 13:50:34;;;;;;;;;;;15.50;99.90;;;;;;5428930;26;19960;-47
2024/04/11 13:53:06;;;;;;;;;;;15.50;99.90;;;;;;5454344;26;20348;-48
2024/04/11 13:55:41;;;;;;;;;;;15.50;99.90;;;;;;5453899;26;20007;-48
2024/04/11 13:58:08;;;;;;;;;;;15.50;99.90;;;;;;5453736;26;19932;-48
2024/04/11 14:00:36;;;;;;;;;;;15.60;99.90;;;;;;5447224;26;19965;-48
2024/04/11 14:03:23;;;;;;;;;;;15.50;99.90;;;;;;5432447;26;20367;-48
2024/04/11 14:05:59;;;;;;;;;;;15.50;99.90;;;;;;5452811;26;19998;-48
2024/04/11 14:08:26;;;;;;;;;;;15.60;99.90;;;;;;5451347;26;19929;-47
2024/04/11 14:10:51;;;;;;;;;;;15.60;99.90;;;;;;5451998;26;19936;-47
2024/04/11 14:13:17;;;;;;;;;;;15.60;99.90;;;;;;5443124;26;19929;-48
2024/04/11 14:15:45;;;;;;;;;;;15.60;99.90;;;;;;5441441;26;19935;-47
2024/04/11 14:18:17;;;;;;;;;;;15.60;99.90;;;;;;5436779;26;19940;-48
2024/04/11 14:20:50;;;;;;;;;;;15.60;99.90;;;;;;5438793;26;19928;-47
2024/04/11 14:23:32;;;;;;;;;;;15.60;99.90;;;;;;5437173;26;20176;-47
2024/04/11 14:26:06;;;;;;;;;;;15.60;99.90;;;;;;5441005;26;20238;-48
2024/04/11 14:28:35;;;;;;;;;;;15.60;99.90;;;;;;5447005;26;19960;-48